AirNav   Air Wisconsin pilot careers
 
 1521 users online  

3TX2 Flying S Farm Airport
Justin, Texas, USA

GOING TO JUSTIN?


FAA INFORMATION EFFECTIVE 28 MARCH 2019

Location

FAA Identifier: 3TX2
Lat/Long: 33-04-50.4390N / 097-20-56.0680W
33-04.840650N / 097-20.934467W
33.0806775 / -97.3489078
(estimated)
Elevation: 780 ft. / 238 m (estimated)
Variation: 07E (1985)
From city: 3 miles W of JUSTIN, TX
Time zone: UTC -5 (UTC -6 during Standard Time)
Zip code: 76247

Airport Operations

Airport use: Private use. Permission required prior to landing
Activation date: 11/1969
Control tower: no
ARTCC: FORT WORTH CENTER
FSS: FORT WORTH FLIGHT SERVICE STATION
8-772-2814
Attendance: UNATNDD
Wind indicator: yes
Segmented circle: no

Airport Communications

WX ASOS at AFW (6 nm S): PHONE 817-491-6188
WX ASOS at DTO (11 nm NE): 119.325 (940-383-8457)
WX AWOS-3 at LUD (16 nm NW): 118.225 (940-627-2365)
WX ASOS at FTW (16 nm S): PHONE 817-740-3346
WX ASOS at DFW (19 nm SE): PHONE 972-615-2608

Nearby radio navigation aids

VOR radial/distance  VOR name  Freq  Var
FUZr317/14.3RANGER VORTAC115.7006E
TTTr303/20.1MAVERICK VOR/DME113.1006E
CVEr291/25.1COWBOY VOR/DME116.2006E
UKWr133/36.2BOWIE VORTAC117.1506E
MQPr048/39.0MILLSAP VORTAC117.7009E

 
NDB name  Hdg/Dist  Freq  Var  ID
MUFIN358/11.336508EFT ..-. -
PINCK208/14.425704EDT -.. -

Airport Services

Airframe service: NONE
Powerplant service: NONE

Runway Information

Runway N/S

Dimensions: 2700 x 150 ft. / 823 x 46 m
Surface: turf
RUNWAY N  RUNWAY S
Traffic pattern: rightleft
Obstructions: fence house, 80 ft. from runway
PLINE 300' E & PARALLEL TO RWY.
pline

Airport Ownership and Management from official FAA records

Ownership: Privately-owned
Owner: JESS E SHRYACK
JUSTIN TX 76247
JUSTIN, TX 76247
Phone (940) 395-0466
Manager: MIDORI E SHRYACK
JUSTIN TX 76247
JUSTIN, TX 76247
Phone (940) 395-0466

Airport Operational Statistics

Aircraft based on the field: 6
Single engine airplanes: 6
    

Additional Remarks

FOR CD CTC REGIONAL APCH AT 972-615-2799.

Instrument Procedures

There are no published instrument procedures at 3TX2.

Some nearby airports with instrument procedures:

KAFW - Fort Worth Alliance Airport (6 nm S)
4T2 - Kenneth Copeland Airport (10 nm SW)
KDTO - Denton Enterprise Airport (11 nm NE)
KLUD - Decatur Municipal Airport (16 nm NW)
KFTW - Fort Worth Meacham International Airport (16 nm S)
KDFW - Dallas-Fort Worth International Airport (19 nm SE)
KNFW - Fort Worth Naval Air Station JRB (Carswell Field) Airport (19 nm S)
 
Loc | Ops | Rwys | IFR | FBO | Links
Com | Nav | Svcs | Stats | Notes
Area around 3TX2 (Flying S Farm Airport)
 
Road maps at: MapQuest Bing Google
 
Aerial photo
WARNING: Photo may not be current or correct
Aerial photo of 3TX2 (Flying S Farm Airport)
Photo taken 01-Sep-2015

Do you have a better or more recent aerial photo of Flying S Farm Airport that you would like to share? If so, please send us your photo.

 
Sectional chart

 
Airport distance calculator
Flying to Flying S Farm Airport? Find the distance to fly.

From to 3TX2

Sunrise and sunset
Times for 22-Apr-2019
 Local
(UTC-5)
 Zulu
(UTC)
Morning civil twilight06:2611:26
Sunrise06:5211:52
Sunset20:0401:04
Evening civil twilight20:2901:29

Current date and time
Zulu (UTC)  22-Apr-2019 17:28:15
Local (UTC-5)  22-Apr-2019 12:28:15
 
METAR
KAFW 
7nm S 
221653Z 16014KT 10SM SCT028 SCT035 BKN280 23/16 A3005 RMK AO2 SLP167 T02280161
KDTO 
10nm NE 
221653Z 18015KT 10SM FEW027 22/15 A3006 RMK AO2 SLP170 T02220150
KFTW 
15nm S 
221653Z 19012KT 10SM SCT029 22/16 A3005 RMK AO2 SLP170 T02220161
KLUD 
16nm NW 
118.22 940-927-2365
221715Z AUTO 15011G16KT 10SM BKN023 21/15 A3005 RMK AO2 T02120152
KNFW 
20nm S 
221652Z 17010KT 150V210 10SM SCT029 BKN035 24/16 A3006 RMK AO2 SLP162 T02390161 VISNO N $
KDFW 
20nm SE 
221653Z 17014KT 10SM SCT028 SCT200 BKN250 23/15 A3005 RMK AO2 SLP171 T02330150 $
TAF
KAFW 
7nm S 
221512Z 2215/2312 17015KT P6SM BKN020 BKN025 TEMPO 2215/2216 BKN018 FM221700 17015G20KT P6SM SCT025 BKN035 BKN150 FM230100 17011KT P6SM BKN050 BKN150 FM230700 17011KT P6SM BKN018
KFTW 
15nm S 
221512Z 2215/2312 17015KT P6SM BKN020 BKN025 TEMPO 2215/2216 BKN018 FM221700 17015G20KT P6SM SCT025 BKN035 BKN150 FM230100 17011KT P6SM BKN050 BKN150 FM230700 17011KT P6SM BKN018
KNFW 
20nm S 
2215/2315 17012G18KT 9999 SCT020 BKN035 OVC250 QNH2996INS TEMPO 2215/2217 BKN020 OVC035 FM221800 17015G22KT 9999 FEW030 SCT060 BKN200 QNH2992INS FM230000 15015KT 9999 FEW060 BKN150 OVC250 QNH2994INS BECMG 2310/2312 17012KT 9999 BKN014 OVC030 QNH2998INS T28/2222Z T18/2312Z FN20046
KDFW 
20nm SE 
221512Z 2215/2318 17015KT P6SM BKN020 BKN025 TEMPO 2215/2216 BKN018 FM221700 17015G20KT P6SM SCT025 BKN035 BKN150 FM230100 17011KT P6SM BKN050 BKN150 FM230700 17011KT P6SM BKN018 FM231600 17008KT P6SM BKN025
NOTAMs
Click for the latest NOTAMs
NOTAMs are issued by the DoD/FAA and will open in a separate window not controlled by AirNav.

 

 
 

Would you like to see your business listed on this page?

 If your business provides an interesting product or service to pilots, flight crews, aircraft, or users of the Flying S Farm Airport, you should consider listing it here.  To start the listing process, click on the button below
 
Add a business
 

Other Pages about Flying S Farm Airport

Update a link
 
Copyright © AirNav, LLC. All rights reserved. Privacy Policy  Contact